sensor_id;sensor_type;location;lat;lon;timestamp;pressure;altitude;pressure_sealevel;temperature;humidity
55576;BME280;41437;45.478;9.116;2022-12-07T00:01:09;99620.94;;;2.05;100.00
55576;BME280;41437;45.478;9.116;2022-12-07T00:04:31;99611.94;;;2.04;100.00
55576;BME280;41437;45.478;9.116;2022-12-07T00:07:49;99602.97;;;2.04;100.00
55576;BME280;41437;45.478;9.116;2022-12-07T00:10:52;99597.53;;;2.04;100.00
55576;BME280;41437;45.478;9.116;2022-12-07T00:13:56;99603.00;;;1.97;100.00
55576;BME280;41437;45.478;9.116;2022-12-07T00:16:58;99609.88;;;1.99;100.00
55576;BME280;41437;45.478;9.116;2022-12-07T00:19:59;99536.97;;;1.57;100.00
55576;BME280;41437;45.478;9.116;2022-12-07T00:23:01;99584.78;;;1.91;100.00
55576;BME280;41437;45.478;9.116;2022-12-07T00:26:05;99584.81;;;1.97;100.00
55576;BME280;41437;45.478;9.116;2022-12-07T00:29:13;99589.59;;;2.02;100.00
55576;BME280;41437;45.478;9.116;2022-12-07T00:32:16;99585.44;;;1.93;100.00
55576;BME280;41437;45.478;9.116;2022-12-07T00:35:17;99589.19;;;1.85;100.00
55576;BME280;41437;45.478;9.116;2022-12-07T00:38:19;99571.03;;;1.72;100.00
55576;BME280;41437;45.478;9.116;2022-12-07T00:41:24;99584.19;;;1.82;100.00
55576;BME280;41437;45.478;9.116;2022-12-07T00:44:26;99523.41;;;1.30;100.00
55576;BME280;41437;45.478;9.116;2022-12-07T00:47:28;99589.84;;;1.54;100.00
55576;BME280;41437;45.478;9.116;2022-12-07T00:50:29;99547.44;;;1.13;100.00
55576;BME280;41437;45.478;9.116;2022-12-07T00:53:33;99577.31;;;1.46;100.00
55576;BME280;41437;45.478;9.116;2022-12-07T00:56:37;99573.56;;;1.41;100.00
55576;BME280;41437;45.478;9.116;2022-12-07T00:59:38;99585.25;;;1.55;100.00
55576;BME280;41437;45.478;9.116;2022-12-07T01:02:40;99580.03;;;1.53;100.00
55576;BME280;41437;45.478;9.116;2022-12-07T01:05:49;99555.38;;;1.28;100.00
55576;BME280;41437;45.478;9.116;2022-12-07T01:08:52;99587.13;;;1.61;100.00
55576;BME280;41437;45.478;9.116;2022-12-07T01:11:56;99517.97;;;1.30;100.00
55576;BME280;41437;45.478;9.116;2022-12-07T01:14:57;99542.84;;;1.40;100.00
55576;BME280;41437;45.478;9.116;2022-12-07T01:17:59;99579.59;;;1.63;100.00
55576;BME280;41437;45.478;9.116;2022-12-07T01:21:02;99561.22;;;1.45;100.00
55576;BME280;41437;45.478;9.116;2022-12-07T01:24:05;99578.75;;;1.56;100.00
55576;BME280;41437;45.478;9.116;2022-12-07T01:27:09;99570.41;;;1.50;100.00
55576;BME280;41437;45.478;9.116;2022-12-07T01:30:12;99589.00;;;1.60;100.00
55576;BME280;41437;45.478;9.116;2022-12-07T01:33:13;99576.03;;;1.56;100.00
55576;BME280;41437;45.478;9.116;2022-12-07T01:36:18;99538.88;;;1.16;100.00
55576;BME280;41437;45.478;9.116;2022-12-07T01:39:20;99583.75;;;1.39;100.00
55576;BME280;41437;45.478;9.116;2022-12-07T01:42:23;99581.28;;;1.44;100.00
55576;BME280;41437;45.478;9.116;2022-12-07T01:45:39;99585.84;;;1.43;100.00
55576;BME280;41437;45.478;9.116;2022-12-07T01:48:41;99584.00;;;1.44;100.00
55576;BME280;41437;45.478;9.116;2022-12-07T01:51:45;99578.13;;;1.47;100.00
55576;BME280;41437;45.478;9.116;2022-12-07T01:54:50;99553.69;;;1.34;100.00
55576;BME280;41437;45.478;9.116;2022-12-07T01:57:55;99578.34;;;1.52;100.00
55576;BME280;41437;45.478;9.116;2022-12-07T02:00:57;99576.25;;;1.54;100.00
55576;BME280;41437;45.478;9.116;2022-12-07T02:03:59;99555.78;;;1.38;100.00
55576;BME280;41437;45.478;9.116;2022-12-07T02:07:02;99579.19;;;1.53;100.00
55576;BME280;41437;45.478;9.116;2022-12-07T02:10:13;99566.22;;;1.55;100.00
55576;BME280;41437;45.478;9.116;2022-12-07T02:13:20;99551.19;;;1.25;100.00
55576;BME280;41437;45.478;9.116;2022-12-07T02:16:29;99571.63;;;1.02;100.00
55576;BME280;41437;45.478;9.116;2022-12-07T02:19:55;99557.53;;;0.65;100.00
55576;BME280;41437;45.478;9.116;2022-12-07T02:26:47;99549.81;;;0.62;100.00
55576;BME280;41437;45.478;9.116;2022-12-07T02:29:58;99560.06;;;0.66;100.00
55576;BME280;41437;45.478;9.116;2022-12-07T02:33:06;99561.72;;;0.74;100.00
55576;BME280;41437;45.478;9.116;2022-12-07T02:36:14;99571.50;;;0.62;100.00
55576;BME280;41437;45.478;9.116;2022-12-07T02:39:24;99563.78;;;0.59;100.00
55576;BME280;41437;45.478;9.116;2022-12-07T02:42:34;99569.03;;;0.73;100.00
55576;BME280;41437;45.478;9.116;2022-12-07T02:45:40;99561.78;;;0.87;100.00
55576;BME280;41437;45.478;9.116;2022-12-07T02:48:45;99556.56;;;0.92;100.00
55576;BME280;41437;45.478;9.116;2022-12-07T02:51:47;99557.38;;;0.86;100.00
55576;BME280;41437;45.478;9.116;2022-12-07T02:54:49;99498.47;;;0.47;100.00
55576;BME280;41437;45.478;9.116;2022-12-07T02:58:04;99531.53;;;0.84;100.00
55576;BME280;41437;45.478;9.116;2022-12-07T03:01:18;99547.19;;;1.02;100.00
55576;BME280;41437;45.478;9.116;2022-12-07T03:04:33;99520.25;;;0.93;100.00
55576;BME280;41437;45.478;9.116;2022-12-07T03:07:48;99546.38;;;1.01;100.00
55576;BME280;41437;45.478;9.116;2022-12-07T03:10:56;99535.28;;;0.89;100.00
55576;BME280;41437;45.478;9.116;2022-12-07T03:14:02;99537.41;;;1.00;100.00
55576;BME280;41437;45.478;9.116;2022-12-07T03:17:12;99511.09;;;0.88;100.00
55576;BME280;41437;45.478;9.116;2022-12-07T03:20:18;99541.56;;;1.03;100.00
55576;BME280;41437;45.478;9.116;2022-12-07T03:23:25;99492.44;;;0.65;100.00
55576;BME280;41437;45.478;9.116;2022-12-07T03:26:28;99533.19;;;0.91;100.00
55576;BME280;41437;45.478;9.116;2022-12-07T03:29:34;99529.44;;;0.92;100.00
55576;BME280;41437;45.478;9.116;2022-12-07T03:32:43;99523.59;;;0.89;100.00
55576;BME280;41437;45.478;9.116;2022-12-07T03:35:51;99456.34;;;0.44;100.00
55576;BME280;41437;45.478;9.116;2022-12-07T03:38:57;99522.34;;;0.91;100.00
55576;BME280;41437;45.478;9.116;2022-12-07T03:42:05;99521.31;;;0.92;100.00
55576;BME280;41437;45.478;9.116;2022-12-07T03:45:08;99491.22;;;0.74;100.00
55576;BME280;41437;45.478;9.116;2022-12-07T03:48:20;99511.47;;;0.91;100.00
55576;BME280;41437;45.478;9.116;2022-12-07T03:51:28;99492.91;;;0.75;100.00
55576;BME280;41437;45.478;9.116;2022-12-07T03:54:37;99513.97;;;0.86;100.00
55576;BME280;41437;45.478;9.116;2022-12-07T03:57:43;99488.94;;;0.71;100.00
55576;BME280;41437;45.478;9.116;2022-12-07T04:00:46;99513.78;;;0.81;100.00
55576;BME280;41437;45.478;9.116;2022-12-07T04:03:49;99504.38;;;0.77;100.00
55576;BME280;41437;45.478;9.116;2022-12-07T04:06:51;99499.75;;;0.64;100.00
55576;BME280;41437;45.478;9.116;2022-12-07T04:09:53;99517.91;;;0.64;100.00
55576;BME280;41437;45.478;9.116;2022-12-07T04:12:56;99515.16;;;0.50;100.00
55576;BME280;41437;45.478;9.116;2022-12-07T04:15:57;99460.03;;;0.23;100.00
55576;BME280;41437;45.478;9.116;2022-12-07T04:19:00;99498.88;;;0.50;100.00
55576;BME280;41437;45.478;9.116;2022-12-07T04:22:04;99499.69;;;0.38;100.00
55576;BME280;41437;45.478;9.116;2022-12-07T04:25:06;99463.94;;;0.08;100.00
55576;BME280;41437;45.478;9.116;2022-12-07T04:28:07;99471.91;;;0.22;100.00
55576;BME280;41437;45.478;9.116;2022-12-07T04:31:09;99492.19;;;0.40;100.00
55576;BME280;41437;45.478;9.116;2022-12-07T04:34:13;99479.00;;;0.30;100.00
55576;BME280;41437;45.478;9.116;2022-12-07T04:37:14;99489.28;;;0.41;100.00
55576;BME280;41437;45.478;9.116;2022-12-07T04:40:17;99488.88;;;0.44;100.00
55576;BME280;41437;45.478;9.116;2022-12-07T04:43:19;99480.09;;;0.42;100.00
55576;BME280;41437;45.478;9.116;2022-12-07T04:46:21;99489.72;;;0.52;100.00
55576;BME280;41437;45.478;9.116;2022-12-07T04:49:24;99477.59;;;0.47;100.00
55576;BME280;41437;45.478;9.116;2022-12-07T04:52:26;99494.31;;;0.51;100.00
55576;BME280;41437;45.478;9.116;2022-12-07T04:55:28;99496.19;;;0.50;100.00
55576;BME280;41437;45.478;9.116;2022-12-07T04:58:29;99503.03;;;0.46;100.00
55576;BME280;41437;45.478;9.116;2022-12-07T05:01:32;99505.97;;;0.52;100.00
55576;BME280;41437;45.478;9.116;2022-12-07T05:04:35;99505.13;;;0.51;100.00
55576;BME280;41437;45.478;9.116;2022-12-07T05:07:37;99478.81;;;0.32;100.00
55576;BME280;41437;45.478;9.116;2022-12-07T05:10:38;99509.34;;;0.54;100.00
55576;BME280;41437;45.478;9.116;2022-12-07T05:13:40;99499.28;;;0.47;100.00
55576;BME280;41437;45.478;9.116;2022-12-07T05:16:42;99498.47;;;0.47;100.00
55576;BME280;41437;45.478;9.116;2022-12-07T05:19:47;99477.56;;;0.34;100.00
55576;BME280;41437;45.478;9.116;2022-12-07T05:22:48;99478.38;;;0.28;100.00
55576;BME280;41437;45.478;9.116;2022-12-07T05:25:50;99503.44;;;0.43;100.00
55576;BME280;41437;45.478;9.116;2022-12-07T05:28:52;99504.66;;;0.34;100.00
55576;BME280;41437;45.478;9.116;2022-12-07T05:31:53;99512.56;;;0.29;100.00
55576;BME280;41437;45.478;9.116;2022-12-07T05:34:56;99509.03;;;0.22;100.00
55576;BME280;41437;45.478;9.116;2022-12-07T05:37:58;99512.34;;;0.24;100.00
55576;BME280;41437;45.478;9.116;2022-12-07T05:41:00;99508.38;;;0.20;100.00
55576;BME280;41437;45.478;9.116;2022-12-07T05:44:02;99507.09;;;0.16;100.00
55576;BME280;41437;45.478;9.116;2022-12-07T05:47:04;99514.84;;;0.19;100.00
55576;BME280;41437;45.478;9.116;2022-12-07T05:50:08;99509.19;;;0.14;100.00
55576;BME280;41437;45.478;9.116;2022-12-07T05:53:10;99516.88;;;0.10;100.00
55576;BME280;41437;45.478;9.116;2022-12-07T05:56:11;99481.78;;;-0.05;100.00
55576;BME280;41437;45.478;9.116;2022-12-07T05:59:13;99511.91;;;0.14;100.00
55576;BME280;41437;45.478;9.116;2022-12-07T06:02:24;99521.78;;;-0.07;100.00
55576;BME280;41437;45.478;9.116;2022-12-07T06:05:27;99513.44;;;-0.05;100.00
55576;BME280;41437;45.478;9.116;2022-12-07T06:08:28;99510.34;;;-0.09;100.00
55576;BME280;41437;45.478;9.116;2022-12-07T06:11:30;99522.84;;;-0.01;100.00
55576;BME280;41437;45.478;9.116;2022-12-07T06:14:50;99519.28;;;-0.08;100.00
55576;BME280;41437;45.478;9.116;2022-12-07T06:17:52;99508.00;;;-0.12;100.00
55576;BME280;41437;45.478;9.116;2022-12-07T06:20:55;99527.44;;;-0.02;100.00
55576;BME280;41437;45.478;9.116;2022-12-07T06:23:57;99501.94;;;-0.20;100.00
55576;BME280;41437;45.478;9.116;2022-12-07T06:26:59;99527.34;;;-0.15;100.00
55576;BME280;41437;45.478;9.116;2022-12-07T06:30:00;99524.63;;;-0.21;100.00
55576;BME280;41437;45.478;9.116;2022-12-07T06:33:06;99524.81;;;-0.23;100.00
55576;BME280;41437;45.478;9.116;2022-12-07T06:36:09;99522.00;;;-0.36;100.00
55576;BME280;41437;45.478;9.116;2022-12-07T06:39:11;99525.38;;;-0.62;100.00
55576;BME280;41437;45.478;9.116;2022-12-07T06:42:13;99534.09;;;-0.88;100.00
55576;BME280;41437;45.478;9.116;2022-12-07T06:45:15;99527.94;;;-1.04;100.00
55576;BME280;41437;45.478;9.116;2022-12-07T06:48:18;99530.38;;;-1.09;100.00
55576;BME280;41437;45.478;9.116;2022-12-07T06:51:21;99526.38;;;-0.91;100.00
55576;BME280;41437;45.478;9.116;2022-12-07T06:54:22;99532.03;;;-0.65;100.00
55576;BME280;41437;45.478;9.116;2022-12-07T06:57:24;99532.13;;;-0.52;100.00
55576;BME280;41437;45.478;9.116;2022-12-07T07:00:26;99528.63;;;-0.45;100.00
55576;BME280;41437;45.478;9.116;2022-12-07T07:03:27;99524.53;;;-0.35;100.00
55576;BME280;41437;45.478;9.116;2022-12-07T07:06:31;99518.25;;;-0.42;100.00
55576;BME280;41437;45.478;9.116;2022-12-07T07:09:32;99532.84;;;-0.36;100.00
55576;BME280;41437;45.478;9.116;2022-12-07T07:12:34;99542.22;;;-0.39;100.00
55576;BME280;41437;45.478;9.116;2022-12-07T07:15:38;99550.22;;;-0.24;100.00
55576;BME280;41437;45.478;9.116;2022-12-07T07:18:40;99559.16;;;-0.23;100.00
55576;BME280;41437;45.478;9.116;2022-12-07T07:21:43;99569.75;;;-0.29;100.00
55576;BME280;41437;45.478;9.116;2022-12-07T07:24:45;99558.09;;;-0.29;100.00
55576;BME280;41437;45.478;9.116;2022-12-07T07:27:46;99555.16;;;-0.34;100.00
55576;BME280;41437;45.478;9.116;2022-12-07T07:30:48;99556.38;;;-0.37;100.00
55576;BME280;41437;45.478;9.116;2022-12-07T07:33:50;99558.13;;;-0.22;100.00
55576;BME280;41437;45.478;9.116;2022-12-07T07:36:53;99559.06;;;-0.09;100.00
55576;BME280;41437;45.478;9.116;2022-12-07T07:39:54;99557.81;;;-0.06;100.00
55576;BME280;41437;45.478;9.116;2022-12-07T07:42:57;99563.91;;;-0.04;100.00
55576;BME280;41437;45.478;9.116;2022-12-07T07:45:59;99566.06;;;0.14;100.00
55576;BME280;41437;45.478;9.116;2022-12-07T07:49:01;99568.13;;;0.05;100.00
55576;BME280;41437;45.478;9.116;2022-12-07T07:52:04;99523.09;;;-0.31;100.00
55576;BME280;41437;45.478;9.116;2022-12-07T07:55:07;99584.38;;;0.05;100.00
55576;BME280;41437;45.478;9.116;2022-12-07T07:58:09;99584.91;;;-0.06;100.00
55576;BME280;41437;45.478;9.116;2022-12-07T08:04:20;99587.41;;;-0.05;100.00
55576;BME280;41437;45.478;9.116;2022-12-07T08:07:23;99589.88;;;-0.10;100.00
55576;BME280;41437;45.478;9.116;2022-12-07T08:10:25;99597.03;;;-0.02;100.00
55576;BME280;41437;45.478;9.116;2022-12-07T08:13:27;99597.84;;;-0.02;100.00
55576;BME280;41437;45.478;9.116;2022-12-07T08:16:28;99593.13;;;0.07;100.00
55576;BME280;41437;45.478;9.116;2022-12-07T08:19:31;99599.88;;;0.18;100.00
55576;BME280;41437;45.478;9.116;2022-12-07T08:22:34;99567.19;;;-0.09;100.00
55576;BME280;41437;45.478;9.116;2022-12-07T08:25:37;99560.25;;;-0.18;100.00
55576;BME280;41437;45.478;9.116;2022-12-07T08:28:40;99601.59;;;-0.03;100.00
55576;BME280;41437;45.478;9.116;2022-12-07T08:31:41;99606.38;;;-0.05;100.00
55576;BME280;41437;45.478;9.116;2022-12-07T08:34:43;99601.63;;;0.04;100.00
55576;BME280;41437;45.478;9.116;2022-12-07T08:37:47;99594.84;;;0.21;100.00
55576;BME280;41437;45.478;9.116;2022-12-07T08:40:53;99585.66;;;0.16;100.00
55576;BME280;41437;45.478;9.116;2022-12-07T08:43:56;99607.66;;;0.34;100.00
55576;BME280;41437;45.478;9.116;2022-12-07T08:46:59;99580.53;;;0.28;100.00
55576;BME280;41437;45.478;9.116;2022-12-07T08:50:04;99605.66;;;0.49;100.00
55576;BME280;41437;45.478;9.116;2022-12-07T08:53:08;99605.06;;;0.61;100.00
55576;BME280;41437;45.478;9.116;2022-12-07T08:56:10;99594.81;;;0.49;100.00
55576;BME280;41437;45.478;9.116;2022-12-07T08:59:14;99609.63;;;0.54;100.00
55576;BME280;41437;45.478;9.116;2022-12-07T09:02:16;99609.16;;;0.43;100.00
55576;BME280;41437;45.478;9.116;2022-12-07T09:05:18;99606.88;;;0.40;100.00
55576;BME280;41437;45.478;9.116;2022-12-07T09:08:21;99585.03;;;0.14;100.00
55576;BME280;41437;45.478;9.116;2022-12-07T09:11:27;99579.50;;;-0.06;100.00
55576;BME280;41437;45.478;9.116;2022-12-07T09:14:29;99608.06;;;-0.04;100.00
55576;BME280;41437;45.478;9.116;2022-12-07T09:17:32;99609.44;;;-0.14;100.00
55576;BME280;41437;45.478;9.116;2022-12-07T09:20:34;99616.88;;;0.05;100.00
55576;BME280;41437;45.478;9.116;2022-12-07T09:23:37;99615.75;;;0.28;100.00
55576;BME280;41437;45.478;9.116;2022-12-07T09:26:39;99617.56;;;0.20;100.00
55576;BME280;41437;45.478;9.116;2022-12-07T09:29:40;99617.84;;;-0.03;100.00
55576;BME280;41437;45.478;9.116;2022-12-07T09:32:42;99618.91;;;-0.04;100.00
55576;BME280;41437;45.478;9.116;2022-12-07T09:35:44;99599.44;;;-0.14;100.00
55576;BME280;41437;45.478;9.116;2022-12-07T09:38:47;99623.06;;;0.34;100.00
55576;BME280;41437;45.478;9.116;2022-12-07T09:41:49;99590.47;;;0.20;100.00
55576;BME280;41437;45.478;9.116;2022-12-07T09:44:51;99622.41;;;0.66;100.00
55576;BME280;41437;45.478;9.116;2022-12-07T09:47:52;99618.53;;;0.89;100.00
55576;BME280;41437;45.478;9.116;2022-12-07T09:50:57;99618.13;;;0.98;100.00
55576;BME280;41437;45.478;9.116;2022-12-07T09:54:01;99621.53;;;1.20;100.00
55576;BME280;41437;45.478;9.116;2022-12-07T09:57:03;99610.09;;;1.32;100.00
55576;BME280;41437;45.478;9.116;2022-12-07T10:00:12;99609.22;;;1.24;100.00
55576;BME280;41437;45.478;9.116;2022-12-07T10:03:14;99606.53;;;1.31;100.00
55576;BME280;41437;45.478;9.116;2022-12-07T10:06:16;99593.31;;;1.02;100.00
55576;BME280;41437;45.478;9.116;2022-12-07T10:09:21;99602.09;;;1.17;100.00
55576;BME280;41437;45.478;9.116;2022-12-07T10:12:23;99607.97;;;1.14;100.00
55576;BME280;41437;45.478;9.116;2022-12-07T10:15:42;99598.38;;;1.18;100.00
55576;BME280;41437;45.478;9.116;2022-12-07T10:18:44;99582.50;;;1.21;100.00
55576;BME280;41437;45.478;9.116;2022-12-07T10:22:00;99570.81;;;1.21;100.00
55576;BME280;41437;45.478;9.116;2022-12-07T10:25:17;99596.50;;;1.38;100.00
55576;BME280;41437;45.478;9.116;2022-12-07T10:28:19;99593.38;;;1.55;100.00
55576;BME280;41437;45.478;9.116;2022-12-07T10:31:22;99585.88;;;1.63;100.00
55576;BME280;41437;45.478;9.116;2022-12-07T10:34:26;99586.69;;;1.64;100.00
55576;BME280;41437;45.478;9.116;2022-12-07T10:37:29;99562.47;;;1.56;100.00
55576;BME280;41437;45.478;9.116;2022-12-07T10:40:34;99559.56;;;1.50;100.00
55576;BME280;41437;45.478;9.116;2022-12-07T10:43:47;99573.31;;;1.69;100.00
55576;BME280;41437;45.478;9.116;2022-12-07T10:47:10;99572.94;;;1.79;100.00
55576;BME280;41437;45.478;9.116;2022-12-07T10:50:32;99571.25;;;1.84;100.00
55576;BME280;41437;45.478;9.116;2022-12-07T10:53:51;99570.41;;;1.84;100.00
55576;BME280;41437;45.478;9.116;2022-12-07T10:57:05;99561.84;;;1.80;100.00
55576;BME280;41437;45.478;9.116;2022-12-07T11:00:16;99562.66;;;1.81;100.00
55576;BME280;41437;45.478;9.116;2022-12-07T11:03:28;99550.72;;;1.95;100.00
55576;BME280;41437;45.478;9.116;2022-12-07T11:06:35;99554.22;;;2.22;100.00
55576;BME280;41437;45.478;9.116;2022-12-07T11:09:54;99549.28;;;2.57;100.00
55576;BME280;41437;45.478;9.116;2022-12-07T11:13:29;99549.44;;;2.69;100.00
55576;BME280;41437;45.478;9.116;2022-12-07T11:16:50;99547.53;;;2.69;100.00
55576;BME280;41437;45.478;9.116;2022-12-07T11:20:02;99543.75;;;2.77;100.00
55576;BME280;41437;45.478;9.116;2022-12-07T11:23:13;99525.41;;;2.66;100.00
55576;BME280;41437;45.478;9.116;2022-12-07T11:26:25;99497.81;;;2.56;100.00
55576;BME280;41437;45.478;9.116;2022-12-07T11:29:56;99487.75;;;2.63;100.00
55576;BME280;41437;45.478;9.116;2022-12-07T11:33:10;99535.25;;;2.98;100.00
55576;BME280;41437;45.478;9.116;2022-12-07T11:36:35;99519.22;;;2.84;100.00
55576;BME280;41437;45.478;9.116;2022-12-07T11:39:42;99532.59;;;2.85;100.00
55576;BME280;41437;45.478;9.116;2022-12-07T11:42:50;99512.72;;;2.85;100.00
55576;BME280;41437;45.478;9.116;2022-12-07T11:45:59;99511.97;;;2.71;100.00
55576;BME280;41437;45.478;9.116;2022-12-07T11:49:09;99496.41;;;2.46;100.00
55576;BME280;41437;45.478;9.116;2022-12-07T11:52:20;99528.13;;;2.66;100.00
55576;BME280;41437;45.478;9.116;2022-12-07T11:55:26;99487.66;;;2.38;100.00
55576;BME280;41437;45.478;9.116;2022-12-07T11:58:46;99522.94;;;2.58;100.00
55576;BME280;41437;45.478;9.116;2022-12-07T12:01:55;99460.91;;;2.35;100.00
55576;BME280;41437;45.478;9.116;2022-12-07T12:05:02;99488.47;;;2.45;100.00
55576;BME280;41437;45.478;9.116;2022-12-07T12:08:13;99504.50;;;2.60;100.00
55576;BME280;41437;45.478;9.116;2022-12-07T12:11:30;99432.84;;;2.41;100.00
55576;BME280;41437;45.478;9.116;2022-12-07T12:14:46;99493.84;;;2.90;100.00
55576;BME280;41437;45.478;9.116;2022-12-07T12:18:05;99467.44;;;2.97;100.00
55576;BME280;41437;45.478;9.116;2022-12-07T12:21:13;99493.78;;;3.28;100.00
55576;BME280;41437;45.478;9.116;2022-12-07T12:24:19;99476.88;;;3.19;100.00
55576;BME280;41437;45.478;9.116;2022-12-07T12:27:26;99482.34;;;3.19;100.00
55576;BME280;41437;45.478;9.116;2022-12-07T12:30:34;99476.50;;;3.16;100.00
55576;BME280;41437;45.478;9.116;2022-12-07T12:33:43;99469.66;;;3.32;100.00
55576;BME280;41437;45.478;9.116;2022-12-07T12:36:46;99468.38;;;3.34;100.00
55576;BME280;41437;45.478;9.116;2022-12-07T12:43:48;99466.16;;;3.49;100.00
55576;BME280;41437;45.478;9.116;2022-12-07T12:46:53;99462.53;;;3.56;100.00
55576;BME280;41437;45.478;9.116;2022-12-07T12:50:16;99471.91;;;3.60;100.00
55576;BME280;41437;45.478;9.116;2022-12-07T12:53:22;99399.44;;;3.15;100.00
55576;BME280;41437;45.478;9.116;2022-12-07T12:56:36;99431.72;;;3.37;100.00
55576;BME280;41437;45.478;9.116;2022-12-07T12:59:41;99460.19;;;3.59;100.00
55576;BME280;41437;45.478;9.116;2022-12-07T13:02:48;99454.59;;;3.72;100.00
55576;BME280;41437;45.478;9.116;2022-12-07T13:06:17;99450.97;;;3.78;100.00
55576;BME280;41437;45.478;9.116;2022-12-07T13:09:22;99421.59;;;3.62;100.00
55576;BME280;41437;45.478;9.116;2022-12-07T13:12:25;99443.56;;;3.86;100.00
55576;BME280;41437;45.478;9.116;2022-12-07T13:15:35;99428.50;;;3.83;100.00
55576;BME280;41437;45.478;9.116;2022-12-07T13:18:38;99432.44;;;4.06;100.00
55576;BME280;41437;45.478;9.116;2022-12-07T13:21:43;99441.19;;;4.08;100.00
55576;BME280;41437;45.478;9.116;2022-12-07T13:24:46;99422.22;;;4.01;100.00
55576;BME280;41437;45.478;9.116;2022-12-07T13:27:54;99399.06;;;3.92;100.00
55576;BME280;41437;45.478;9.116;2022-12-07T13:31:11;99414.31;;;4.11;100.00
55576;BME280;41437;45.478;9.116;2022-12-07T13:34:29;99426.81;;;4.19;100.00
55576;BME280;41437;45.478;9.116;2022-12-07T13:37:33;99379.44;;;4.01;100.00
55576;BME280;41437;45.478;9.116;2022-12-07T13:40:35;99413.22;;;4.31;100.00
55576;BME280;41437;45.478;9.116;2022-12-07T13:43:46;99369.06;;;3.92;100.00
55576;BME280;41437;45.478;9.116;2022-12-07T13:46:57;99408.94;;;4.23;100.00
55576;BME280;41437;45.478;9.116;2022-12-07T13:50:01;99406.53;;;4.26;100.00
55576;BME280;41437;45.478;9.116;2022-12-07T13:53:11;99414.91;;;4.32;100.00
55576;BME280;41437;45.478;9.116;2022-12-07T13:56:14;99396.69;;;4.14;100.00
55576;BME280;41437;45.478;9.116;2022-12-07T13:59:17;99411.50;;;4.18;100.00
55576;BME280;41437;45.478;9.116;2022-12-07T14:02:21;99410.22;;;4.20;100.00
55576;BME280;41437;45.478;9.116;2022-12-07T14:05:26;99364.47;;;4.04;100.00
55576;BME280;41437;45.478;9.116;2022-12-07T14:08:30;99416.09;;;4.36;100.00
55576;BME280;41437;45.478;9.116;2022-12-07T14:11:32;99413.59;;;4.34;100.00
55576;BME280;41437;45.478;9.116;2022-12-07T14:14:33;99414.78;;;4.38;100.00
55576;BME280;41437;45.478;9.116;2022-12-07T14:17:35;99412.69;;;4.40;100.00
55576;BME280;41437;45.478;9.116;2022-12-07T14:20:38;99405.09;;;4.42;100.00
55576;BME280;41437;45.478;9.116;2022-12-07T14:23:42;99413.19;;;4.49;100.00
55576;BME280;41437;45.478;9.116;2022-12-07T14:26:44;99405.19;;;4.36;100.00
55576;BME280;41437;45.478;9.116;2022-12-07T14:29:47;99424.78;;;4.44;100.00
55576;BME280;41437;45.478;9.116;2022-12-07T14:32:52;99405.53;;;4.39;100.00
55576;BME280;41437;45.478;9.116;2022-12-07T14:35:55;99413.59;;;4.34;100.00
55576;BME280;41437;45.478;9.116;2022-12-07T14:38:59;99415.59;;;4.27;100.00
55576;BME280;41437;45.478;9.116;2022-12-07T14:42:01;99421.50;;;4.24;100.00
55576;BME280;41437;45.478;9.116;2022-12-07T14:45:03;99428.16;;;4.28;100.00
55576;BME280;41437;45.478;9.116;2022-12-07T14:48:05;99424.50;;;4.34;100.00
55576;BME280;41437;45.478;9.116;2022-12-07T14:51:08;99422.38;;;4.36;100.00
55576;BME280;41437;45.478;9.116;2022-12-07T14:54:15;99403.78;;;4.15;100.00
55576;BME280;41437;45.478;9.116;2022-12-07T14:57:18;99423.28;;;4.30;100.00
55576;BME280;41437;45.478;9.116;2022-12-07T15:00:21;99423.53;;;4.28;100.00
55576;BME280;41437;45.478;9.116;2022-12-07T15:03:23;99429.81;;;4.29;100.00
55576;BME280;41437;45.478;9.116;2022-12-07T15:06:25;99382.75;;;4.03;100.00
55576;BME280;41437;45.478;9.116;2022-12-07T15:09:28;99429.56;;;4.31;100.00
55576;BME280;41437;45.478;9.116;2022-12-07T15:12:30;99432.16;;;4.25;100.00
55576;BME280;41437;45.478;9.116;2022-12-07T15:15:31;99399.41;;;3.95;100.00
55576;BME280;41437;45.478;9.116;2022-12-07T15:18:33;99413.94;;;4.08;100.00
55576;BME280;41437;45.478;9.116;2022-12-07T15:21:35;99422.41;;;3.99;100.00
55576;BME280;41437;45.478;9.116;2022-12-07T15:24:38;99424.59;;;4.09;100.00
55576;BME280;41437;45.478;9.116;2022-12-07T15:27:39;99393.72;;;3.78;100.00
55576;BME280;41437;45.478;9.116;2022-12-07T15:30:42;99418.78;;;3.87;100.00
55576;BME280;41437;45.478;9.116;2022-12-07T15:33:44;99407.50;;;3.65;100.00
55576;BME280;41437;45.478;9.116;2022-12-07T15:36:46;99410.56;;;3.57;100.00
55576;BME280;41437;45.478;9.116;2022-12-07T15:39:49;99387.06;;;3.38;100.00
55576;BME280;41437;45.478;9.116;2022-12-07T15:42:51;99421.47;;;3.57;100.00
55576;BME280;41437;45.478;9.116;2022-12-07T15:45:53;99413.94;;;3.52;100.00
55576;BME280;41437;45.478;9.116;2022-12-07T15:48:53;99416.50;;;3.47;100.00
55576;BME280;41437;45.478;9.116;2022-12-07T15:51:55;99420.91;;;3.48;100.00
55576;BME280;41437;45.478;9.116;2022-12-07T15:54:58;99423.00;;;3.46;100.00
55576;BME280;41437;45.478;9.116;2022-12-07T15:58:02;99422.63;;;3.43;100.00
55576;BME280;41437;45.478;9.116;2022-12-07T16:01:10;99420.56;;;3.38;100.00
55576;BME280;41437;45.478;9.116;2022-12-07T16:04:12;99429.81;;;3.37;100.00
55576;BME280;41437;45.478;9.116;2022-12-07T16:07:14;99433.66;;;3.30;100.00
55576;BME280;41437;45.478;9.116;2022-12-07T16:10:17;99424.59;;;3.11;100.00
55576;BME280;41437;45.478;9.116;2022-12-07T16:13:19;99430.75;;;2.99;100.00
55576;BME280;41437;45.478;9.116;2022-12-07T16:16:21;99427.28;;;2.92;100.00
55576;BME280;41437;45.478;9.116;2022-12-07T16:19:23;99395.50;;;2.61;100.00
55576;BME280;41437;45.478;9.116;2022-12-07T16:22:25;99426.91;;;2.82;100.00
55576;BME280;41437;45.478;9.116;2022-12-07T16:25:28;99400.88;;;2.68;100.00
55576;BME280;41437;45.478;9.116;2022-12-07T16:28:30;99426.72;;;2.84;100.00